createdAt,value
2023-01-20T00:01:48.454Z,8.80
2023-01-20T00:04:19.419Z,8.70
2023-01-20T00:06:50.100Z,8.70
2023-01-20T00:09:20.360Z,8.60
2023-01-20T00:11:49.895Z,8.60
2023-01-20T00:14:18.813Z,8.50
2023-01-20T00:16:47.762Z,8.50
2023-01-20T00:19:17.101Z,8.40
2023-01-20T00:21:46.161Z,8.40
2023-01-20T00:24:16.677Z,8.40
2023-01-20T00:26:45.884Z,8.40
2023-01-20T00:29:15.066Z,8.40
2023-01-20T00:31:44.269Z,8.40
2023-01-20T00:34:13.306Z,8.50
2023-01-20T00:36:42.284Z,8.50
2023-01-20T00:39:11.309Z,8.50
2023-01-20T00:41:41.740Z,8.50
2023-01-20T00:44:10.794Z,8.60
2023-01-20T00:46:39.875Z,8.60
2023-01-20T00:49:08.934Z,8.50
2023-01-20T00:51:38.019Z,8.50
2023-01-20T00:54:06.977Z,8.50
2023-01-20T00:56:35.910Z,8.50
2023-01-20T00:59:06.449Z,8.50
2023-01-20T01:01:35.689Z,8.50
2023-01-20T01:04:04.678Z,8.40
2023-01-20T01:06:33.745Z,8.30
2023-01-20T01:09:02.728Z,8.30
2023-01-20T01:11:31.699Z,8.20
2023-01-20T01:14:00.632Z,8.10
2023-01-20T01:16:31.023Z,8.10
2023-01-20T01:19:00.126Z,8.00
2023-01-20T01:21:29.523Z,7.90
2023-01-20T01:23:58.490Z,7.80
2023-01-20T01:26:27.589Z,7.70
2023-01-20T01:28:56.463Z,7.60
2023-01-20T01:31:25.435Z,7.50
2023-01-20T01:33:55.985Z,7.50
2023-01-20T01:36:25.149Z,7.50
2023-01-20T01:38:57.445Z,7.50
2023-01-20T01:41:28.324Z,7.50
2023-01-20T01:44:07.022Z,7.50
2023-01-20T01:46:36.728Z,7.40
2023-01-20T01:49:14.187Z,7.40
2023-01-20T01:51:46.863Z,7.30
2023-01-20T01:54:19.408Z,7.30
2023-01-20T01:56:50.243Z,7.30
2023-01-20T01:59:20.320Z,7.30
2023-01-20T02:01:52.702Z,7.40
2023-01-20T02:04:25.017Z,7.40
2023-01-20T02:06:56.050Z,7.40
2023-01-20T02:09:26.964Z,7.40
2023-01-20T02:11:59.550Z,7.50
2023-01-20T02:14:31.756Z,7.50
2023-01-20T02:17:06.536Z,7.50
2023-01-20T02:20:00.544Z,7.60
2023-01-20T02:22:38.070Z,7.60
2023-01-20T02:25:44.239Z,7.70
2023-01-20T02:28:51.987Z,7.70
2023-01-20T02:32:08.650Z,7.80
2023-01-20T02:34:44.684Z,7.70
2023-01-20T02:37:17.361Z,7.70
2023-01-20T02:39:57.840Z,7.80
2023-01-20T02:42:31.239Z,7.80
2023-01-20T02:45:06.613Z,7.80
2023-01-20T02:47:50.727Z,7.80
2023-01-20T02:50:25.479Z,7.80
2023-01-20T02:52:58.351Z,7.80
2023-01-20T02:55:33.703Z,7.80
2023-01-20T02:58:06.396Z,7.80
2023-01-20T03:00:40.721Z,7.80
2023-01-20T03:03:13.835Z,7.80
2023-01-20T03:05:47.503Z,7.80
2023-01-20T03:08:18.030Z,7.80
2023-01-20T03:10:49.528Z,7.80
2023-01-20T03:13:23.668Z,7.80
2023-01-20T03:15:59.735Z,7.90
2023-01-20T03:18:31.627Z,7.90
2023-01-20T03:21:01.483Z,7.80
2023-01-20T03:23:34.032Z,7.80
2023-01-20T03:26:06.401Z,7.80
2023-01-20T03:28:35.477Z,7.80
2023-01-20T03:31:11.934Z,7.90
2023-01-20T03:33:42.931Z,7.90
2023-01-20T03:36:13.001Z,7.90
2023-01-20T03:38:42.151Z,7.90
2023-01-20T03:41:18.980Z,7.90
2023-01-20T03:43:58.633Z,7.80
2023-01-20T03:46:33.822Z,7.90
2023-01-20T03:49:10.287Z,8.00
2023-01-20T03:51:48.509Z,8.00
2023-01-20T03:54:24.019Z,8.10
2023-01-20T03:57:04.219Z,8.20
2023-01-20T03:59:35.724Z,8.30
2023-01-20T04:02:07.920Z,8.40
2023-01-20T04:04:40.940Z,8.40
2023-01-20T04:07:29.102Z,8.50
2023-01-20T04:10:02.108Z,8.50
2023-01-20T04:12:31.578Z,8.50
2023-01-20T04:15:01.942Z,8.50
2023-01-20T04:17:31.897Z,8.50
2023-01-20T04:20:06.041Z,8.50
2023-01-20T04:22:40.371Z,8.50
2023-01-20T04:25:16.561Z,8.70
2023-01-20T04:27:45.893Z,8.10
2023-01-20T04:30:15.870Z,8.50
2023-01-20T04:32:44.908Z,8.50
2023-01-20T04:35:17.617Z,8.40
2023-01-20T04:37:46.931Z,8.40
2023-01-20T04:40:15.993Z,8.40
2023-01-20T04:42:44.956Z,8.40
2023-01-20T04:45:17.697Z,8.40
2023-01-20T04:47:46.838Z,8.40
2023-01-20T04:50:17.773Z,8.30
2023-01-20T04:52:46.760Z,8.30
2023-01-20T04:55:16.131Z,8.30
2023-01-20T04:57:45.251Z,8.30
2023-01-20T05:00:20.287Z,8.30
2023-01-20T05:02:49.555Z,8.30
2023-01-20T05:05:20.195Z,8.30
2023-01-20T05:07:53.136Z,8.20
2023-01-20T05:10:22.403Z,8.20
2023-01-20T05:12:51.346Z,8.10
2023-01-20T05:15:20.269Z,8.10
2023-01-20T05:17:49.175Z,8.00
2023-01-20T05:20:20.977Z,8.00
2023-01-20T05:22:49.984Z,7.90
2023-01-20T05:25:18.943Z,7.90
2023-01-20T05:27:48.017Z,7.80
2023-01-20T05:30:17.554Z,7.80
2023-01-20T05:32:47.007Z,7.80
2023-01-20T05:35:16.572Z,7.80
2023-01-20T05:37:47.118Z,7.80
2023-01-20T05:40:16.357Z,7.80
2023-01-20T05:42:45.272Z,7.80
2023-01-20T05:45:14.371Z,7.80
2023-01-20T05:47:43.592Z,7.80
2023-01-20T05:50:14.232Z,7.80
2023-01-20T05:52:43.205Z,7.80
2023-01-20T05:55:13.957Z,7.90
2023-01-20T05:57:43.206Z,7.90
2023-01-20T06:00:14.315Z,7.90
2023-01-20T06:02:43.534Z,7.90
2023-01-20T06:05:12.619Z,7.90
2023-01-20T06:07:41.675Z,7.90
2023-01-20T06:10:13.580Z,7.90
2023-01-20T06:12:42.572Z,7.90
2023-01-20T06:15:12.801Z,8.00
2023-01-20T06:17:42.047Z,8.00
2023-01-20T06:20:12.577Z,8.10
2023-01-20T06:22:41.567Z,8.20
2023-01-20T06:25:10.870Z,8.40
2023-01-20T06:27:41.248Z,8.50
2023-01-20T06:30:11.822Z,8.70
2023-01-20T06:32:40.975Z,8.80
2023-01-20T06:35:11.445Z,9.00
2023-01-20T06:37:40.494Z,9.10
2023-01-20T06:40:10.716Z,9.40
2023-01-20T06:42:41.239Z,9.80
2023-01-20T06:45:11.449Z,10.10
2023-01-20T06:47:40.687Z,10.50
2023-01-20T06:50:10.686Z,10.80
2023-01-20T06:52:39.566Z,11.20
2023-01-20T06:55:09.187Z,11.70
2023-01-20T06:57:38.397Z,12.20
2023-01-20T07:00:10.585Z,12.70
2023-01-20T07:02:39.509Z,13.20
2023-01-20T07:05:10.034Z,13.60
2023-01-20T07:07:39.084Z,14.00
2023-01-20T07:10:08.951Z,14.50
2023-01-20T07:12:37.989Z,14.90
2023-01-20T07:15:09.861Z,15.30
2023-01-20T07:17:38.881Z,15.60
2023-01-20T07:20:08.675Z,15.90
2023-01-20T07:22:37.698Z,16.10
2023-01-20T07:25:07.523Z,16.50
2023-01-20T07:27:36.479Z,16.80
2023-01-20T07:30:05.823Z,17.20
2023-01-20T07:32:36.288Z,17.60
2023-01-20T07:35:05.541Z,17.80
2023-01-20T07:37:34.430Z,17.90
2023-01-20T07:40:03.771Z,17.80
2023-01-20T07:42:32.813Z,17.80
2023-01-20T07:45:01.825Z,17.80
2023-01-20T07:47:31.362Z,18.00
2023-01-20T07:50:03.257Z,18.20
2023-01-20T07:52:32.455Z,18.50
2023-01-20T07:55:01.373Z,18.70
2023-01-20T07:57:32.144Z,18.90
2023-01-20T08:00:03.030Z,19.20
2023-01-20T08:02:39.549Z,19.50
2023-01-20T08:05:10.512Z,19.70
2023-01-20T08:07:40.565Z,19.90
2023-01-20T08:10:11.447Z,20.10
2023-01-20T08:12:41.684Z,20.10
2023-01-20T08:15:13.167Z,20.30
2023-01-20T08:17:43.817Z,20.50
2023-01-20T08:20:17.655Z,20.80
2023-01-20T08:22:48.123Z,21.20
2023-01-20T08:25:21.484Z,21.60
2023-01-20T08:27:52.496Z,22.10
2023-01-20T08:30:22.298Z,22.50
2023-01-20T08:32:52.585Z,22.60
2023-01-20T08:35:23.616Z,22.80
2023-01-20T08:37:52.652Z,23.10
2023-01-20T08:40:21.915Z,23.30
2023-01-20T08:42:52.120Z,23.40
2023-01-20T08:45:40.092Z,23.60
2023-01-20T08:48:09.295Z,23.70
2023-01-20T08:50:58.234Z,23.70
2023-01-20T08:53:27.611Z,23.70
2023-01-20T08:55:57.573Z,23.80
2023-01-20T08:58:26.746Z,24.10
2023-01-20T09:00:56.859Z,24.40
2023-01-20T09:03:25.965Z,24.60
2023-01-20T09:05:55.146Z,24.80
2023-01-20T09:08:27.184Z,25.10
2023-01-20T09:10:57.783Z,25.40
2023-01-20T09:13:26.812Z,25.50
2023-01-20T09:15:55.781Z,25.70
2023-01-20T09:18:24.844Z,26.20
2023-01-20T09:20:53.872Z,26.70
2023-01-20T09:23:22.804Z,27.00
2023-01-20T09:25:53.321Z,27.20
2023-01-20T09:28:22.557Z,27.30
2023-01-20T09:30:51.595Z,27.30
2023-01-20T09:33:23.767Z,27.40
2023-01-20T09:35:56.298Z,27.60
2023-01-20T09:38:43.211Z,27.70
2023-01-20T09:41:36.949Z,27.90
2023-01-20T09:44:26.015Z,28.00
2023-01-20T09:47:21.338Z,28.10
2023-01-20T09:50:24.677Z,28.30
2023-01-20T09:53:05.756Z,28.50
2023-01-20T09:55:42.325Z,28.60
2023-01-20T09:58:29.307Z,28.80
2023-01-20T10:01:07.533Z,29.10
2023-01-20T10:03:42.953Z,29.30
2023-01-20T10:06:18.444Z,29.30
2023-01-20T10:09:05.115Z,29.10
2023-01-20T10:11:39.941Z,28.90
2023-01-20T10:14:17.117Z,28.60
2023-01-20T10:16:53.258Z,28.50
2023-01-20T10:19:30.352Z,28.50
2023-01-20T10:22:09.415Z,28.50
2023-01-20T10:24:42.104Z,28.40
2023-01-20T10:27:11.084Z,28.40
2023-01-20T10:29:46.528Z,28.40
2023-01-20T10:32:27.762Z,28.40
2023-01-20T10:34:59.457Z,28.40
2023-01-20T10:37:29.067Z,28.60
2023-01-20T10:40:02.405Z,28.80
2023-01-20T10:42:31.523Z,28.90
2023-01-20T10:45:02.474Z,28.90
2023-01-20T10:47:43.527Z,28.90
2023-01-20T10:50:44.424Z,29.00
2023-01-20T10:53:33.778Z,29.10
2023-01-20T10:56:16.046Z,29.10
2023-01-20T10:58:47.893Z,29.10
2023-01-20T11:01:20.322Z,29.20
2023-01-20T11:03:50.692Z,29.30
2023-01-20T11:06:22.402Z,29.20
2023-01-20T11:08:51.502Z,29.00
2023-01-20T11:11:39.205Z,28.60
2023-01-20T11:14:10.316Z,28.00
2023-01-20T11:16:45.000Z,27.30
2023-01-20T11:19:14.387Z,26.70
2023-01-20T11:21:43.414Z,26.10
2023-01-20T11:24:33.442Z,25.50
2023-01-20T11:27:25.028Z,24.90
2023-01-20T11:29:58.159Z,24.40
2023-01-20T11:32:34.944Z,24.00
2023-01-20T11:35:20.220Z,23.60
2023-01-20T11:37:49.469Z,23.30
2023-01-20T11:40:22.378Z,23.10
2023-01-20T11:42:52.554Z,22.90
2023-01-20T11:45:31.323Z,22.70
2023-01-20T11:48:19.383Z,22.60
2023-01-20T11:50:50.592Z,22.40
2023-01-20T11:53:22.784Z,22.30
2023-01-20T11:55:57.726Z,22.20
2023-01-20T11:58:30.457Z,22.10
2023-01-20T12:01:04.864Z,22.10
2023-01-20T12:04:10.283Z,22.10
2023-01-20T12:06:48.828Z,22.00
2023-01-20T12:09:22.645Z,22.00
2023-01-20T12:11:58.292Z,21.90
2023-01-20T12:14:31.360Z,21.90
2023-01-20T12:17:17.092Z,21.90
2023-01-20T12:20:00.197Z,21.90
2023-01-20T12:22:42.797Z,21.90
2023-01-20T12:25:21.507Z,21.90
2023-01-20T12:27:54.886Z,21.90
2023-01-20T12:30:47.000Z,22.00
2023-01-20T12:33:22.263Z,22.10
2023-01-20T12:36:23.650Z,22.10
2023-01-20T12:39:19.676Z,22.20
2023-01-20T12:42:14.421Z,22.30
2023-01-20T12:44:48.826Z,22.30
2023-01-20T12:47:27.783Z,22.40
2023-01-20T12:50:15.432Z,22.40
2023-01-20T12:52:56.280Z,22.40
2023-01-20T12:55:38.196Z,22.40
2023-01-20T12:58:20.415Z,22.40
2023-01-20T13:01:28.244Z,22.40
2023-01-20T13:04:32.527Z,22.40
2023-01-20T13:07:35.274Z,22.40
2023-01-20T13:10:41.050Z,22.40
2023-01-20T13:13:23.643Z,22.50
2023-01-20T13:15:59.730Z,22.50
2023-01-20T13:18:38.578Z,22.60
2023-01-20T13:21:07.559Z,22.60
2023-01-20T13:23:38.589Z,22.70
2023-01-20T13:26:09.595Z,22.80
2023-01-20T13:28:38.908Z,22.80
2023-01-20T13:31:46.392Z,22.80
2023-01-20T13:34:36.965Z,22.80
2023-01-20T13:37:25.587Z,22.80
2023-01-20T13:39:55.885Z,22.70
2023-01-20T13:42:53.772Z,22.60
2023-01-20T13:45:24.986Z,22.50
2023-01-20T13:48:00.406Z,22.40
2023-01-20T13:50:32.940Z,22.30
2023-01-20T13:53:29.281Z,22.10
2023-01-20T13:56:25.938Z,22.00
2023-01-20T13:58:58.302Z,21.90
2023-01-20T14:01:28.253Z,21.80
2023-01-20T14:04:05.186Z,21.50
2023-01-20T14:06:36.287Z,21.10
2023-01-20T14:09:11.777Z,20.50
2023-01-20T14:11:51.023Z,20.00
2023-01-20T14:14:23.159Z,19.40
2023-01-20T14:16:52.896Z,19.10
2023-01-20T14:19:25.522Z,18.70
2023-01-20T14:22:01.937Z,18.40
2023-01-20T14:24:32.110Z,18.10
2023-01-20T14:27:15.790Z,17.90
2023-01-20T14:29:46.958Z,17.70
2023-01-20T14:32:22.243Z,17.50
2023-01-20T14:34:52.001Z,17.40
2023-01-20T14:37:28.318Z,17.30
2023-01-20T14:39:59.017Z,17.20
2023-01-20T14:42:29.988Z,17.10
2023-01-20T14:45:00.451Z,17.00
2023-01-20T14:47:30.576Z,16.90
2023-01-20T14:49:59.747Z,16.90
2023-01-20T14:52:30.776Z,16.80
2023-01-20T14:54:59.937Z,16.70
2023-01-20T14:57:31.160Z,16.60
2023-01-20T15:00:23.163Z,16.50
2023-01-20T15:03:09.517Z,16.50
2023-01-20T15:05:42.017Z,16.30
2023-01-20T15:08:46.554Z,16.20
2023-01-20T15:11:24.634Z,16.10
2023-01-20T15:14:11.238Z,15.90
2023-01-20T15:16:49.577Z,15.80
2023-01-20T15:19:32.567Z,15.60
2023-01-20T15:22:26.108Z,15.40
2023-01-20T15:24:56.600Z,15.10
2023-01-20T15:27:32.360Z,14.90
2023-01-20T15:30:16.682Z,14.70
2023-01-20T15:32:48.869Z,14.50
2023-01-20T15:35:20.311Z,14.30
2023-01-20T15:37:49.608Z,14.00
2023-01-20T15:40:21.701Z,13.80
2023-01-20T15:42:51.951Z,13.60
2023-01-20T15:45:21.610Z,13.40
2023-01-20T15:47:53.022Z,13.20
2023-01-20T15:50:24.450Z,13.10
2023-01-20T15:52:53.462Z,13.00
2023-01-20T15:55:22.465Z,12.90
2023-01-20T15:57:53.644Z,12.80
2023-01-20T16:00:24.617Z,12.70
2023-01-20T16:02:55.151Z,12.60
2023-01-20T16:05:25.395Z,12.60
2023-01-20T16:07:54.504Z,12.50
2023-01-20T16:10:23.435Z,12.40
2023-01-20T16:12:54.078Z,12.40
2023-01-20T16:15:23.152Z,12.40
2023-01-20T16:17:54.267Z,12.30
2023-01-20T16:20:26.291Z,12.40
2023-01-20T16:22:56.981Z,12.40
2023-01-20T16:25:26.165Z,12.40
2023-01-20T16:27:55.047Z,12.40
2023-01-20T16:30:25.442Z,12.40
2023-01-20T16:32:54.734Z,12.40
2023-01-20T16:35:25.776Z,12.40
2023-01-20T16:37:54.769Z,12.40
2023-01-20T16:40:24.831Z,12.40
2023-01-20T16:42:56.571Z,12.50
2023-01-20T16:45:28.252Z,12.50
2023-01-20T16:47:57.698Z,12.50
2023-01-20T16:50:28.793Z,12.50
2023-01-20T16:52:58.477Z,12.60
2023-01-20T16:55:27.604Z,12.60
2023-01-20T16:57:56.516Z,12.60
2023-01-20T17:00:25.660Z,12.60
2023-01-20T17:03:13.405Z,12.60
2023-01-20T17:05:43.887Z,12.60
2023-01-20T17:08:12.873Z,12.70
2023-01-20T17:10:41.839Z,12.70
2023-01-20T17:13:10.845Z,12.80
2023-01-20T17:15:42.799Z,12.80
2023-01-20T17:18:12.089Z,12.90
2023-01-20T17:20:42.622Z,12.90
2023-01-20T17:23:11.639Z,12.90
2023-01-20T17:25:41.344Z,12.90
2023-01-20T17:28:10.445Z,12.80
2023-01-20T17:30:40.178Z,12.80
2023-01-20T17:33:09.224Z,12.80
2023-01-20T17:35:38.201Z,12.70
2023-01-20T17:38:08.556Z,12.70
2023-01-20T17:40:37.637Z,12.60
2023-01-20T17:43:06.634Z,12.50
2023-01-20T17:45:35.668Z,12.50
2023-01-20T17:48:04.870Z,12.40
2023-01-20T17:50:33.869Z,12.40
2023-01-20T17:53:02.937Z,12.30
2023-01-20T17:55:33.477Z,12.30
2023-01-20T17:58:03.737Z,12.20
2023-01-20T18:00:32.918Z,12.20
2023-01-20T18:03:02.011Z,12.20
2023-01-20T18:05:31.652Z,12.10
2023-01-20T18:08:00.948Z,12.10
2023-01-20T18:10:29.967Z,12.10
2023-01-20T18:13:01.850Z,12.10
2023-01-20T18:15:31.054Z,12.20
2023-01-20T18:18:01.568Z,12.20
2023-01-20T18:20:30.645Z,12.30
2023-01-20T18:23:00.589Z,12.30
2023-01-20T18:25:29.818Z,12.40
2023-01-20T18:27:59.168Z,12.40
2023-01-20T18:30:29.956Z,12.50
2023-01-20T18:32:59.570Z,12.60
2023-01-20T18:35:28.467Z,12.70
2023-01-20T18:37:57.779Z,12.80
2023-01-20T18:40:26.979Z,12.90
2023-01-20T18:42:56.018Z,13.00
2023-01-20T18:45:27.142Z,13.20
2023-01-20T18:47:57.545Z,13.30
2023-01-20T18:50:26.577Z,13.40
2023-01-20T18:52:56.733Z,13.50
2023-01-20T18:55:25.975Z,13.70
2023-01-20T18:57:54.954Z,13.80
2023-01-20T19:00:24.166Z,13.90
2023-01-20T19:02:53.651Z,14.00
2023-01-20T19:05:25.160Z,14.10
2023-01-20T19:07:54.257Z,14.10
2023-01-20T19:10:23.237Z,14.20
2023-01-20T19:12:53.316Z,14.20
2023-01-20T19:15:22.450Z,14.20
2023-01-20T19:17:52.715Z,14.30
2023-01-20T19:20:21.743Z,14.30
2023-01-20T19:22:52.121Z,14.30
2023-01-20T19:25:21.005Z,14.40
2023-01-20T19:27:50.148Z,14.40
2023-01-20T19:30:19.508Z,14.40
2023-01-20T19:32:48.478Z,14.50
2023-01-20T19:35:17.545Z,14.50
2023-01-20T19:37:46.481Z,14.50
2023-01-20T19:40:17.583Z,14.50
2023-01-20T19:42:49.043Z,14.50
2023-01-20T19:45:18.405Z,14.50
2023-01-20T19:47:47.388Z,14.50
2023-01-20T19:50:16.746Z,14.50
2023-01-20T19:52:46.078Z,14.50
2023-01-20T19:55:16.629Z,14.40
2023-01-20T19:57:45.701Z,14.40
2023-01-20T20:00:15.676Z,14.40
2023-01-20T20:02:45.201Z,14.40
2023-01-20T20:05:14.385Z,14.40
2023-01-20T20:07:43.612Z,14.30
2023-01-20T20:10:13.046Z,14.30
2023-01-20T20:12:43.697Z,14.20
2023-01-20T20:15:13.361Z,14.10
2023-01-20T20:17:42.357Z,14.00
2023-01-20T20:20:12.398Z,14.00
2023-01-20T20:22:41.420Z,14.00
2023-01-20T20:25:11.690Z,14.00
2023-01-20T20:27:40.882Z,13.90
2023-01-20T20:30:12.784Z,13.90
2023-01-20T20:32:41.805Z,13.80
2023-01-20T20:35:11.238Z,13.70
2023-01-20T20:37:40.309Z,13.60
2023-01-20T20:40:10.766Z,13.60
2023-01-20T20:42:39.833Z,13.50
2023-01-20T20:45:12.010Z,13.50
2023-01-20T20:47:40.962Z,13.50
2023-01-20T20:50:11.295Z,13.50
2023-01-20T20:52:40.524Z,13.50
2023-01-20T20:55:12.248Z,13.50
2023-01-20T20:57:42.551Z,13.60
2023-01-20T21:00:15.915Z,13.70
2023-01-20T21:02:45.272Z,13.80
2023-01-20T21:05:14.291Z,13.90
2023-01-20T21:07:43.248Z,13.90
2023-01-20T21:10:16.797Z,14.00
2023-01-20T21:12:47.347Z,14.00
2023-01-20T21:15:19.950Z,14.10
2023-01-20T21:17:49.156Z,14.10
2023-01-20T21:20:19.206Z,14.10
2023-01-20T21:22:50.580Z,14.00
2023-01-20T21:25:24.112Z,14.00
2023-01-20T21:27:53.368Z,13.90
2023-01-20T21:30:23.809Z,13.80
2023-01-20T21:32:54.303Z,13.70
2023-01-20T21:35:23.414Z,13.60
2023-01-20T21:37:52.272Z,13.50
2023-01-20T21:40:21.409Z,13.50
2023-01-20T21:42:51.731Z,13.30
2023-01-20T21:45:25.316Z,13.20
2023-01-20T21:47:54.405Z,13.10
2023-01-20T21:50:40.466Z,13.00
2023-01-20T21:53:09.662Z,12.90
2023-01-20T21:55:39.020Z,12.90
2023-01-20T21:58:09.335Z,12.80
2023-01-20T22:00:40.090Z,12.70
2023-01-20T22:03:09.333Z,12.70
2023-01-20T22:05:40.479Z,12.70
2023-01-20T22:08:09.606Z,12.70
2023-01-20T22:10:38.649Z,12.70
2023-01-20T22:13:08.248Z,12.80
2023-01-20T22:15:40.394Z,12.80
2023-01-20T22:18:28.078Z,12.80
2023-01-20T22:21:02.637Z,12.80
2023-01-20T22:23:50.170Z,12.70
2023-01-20T22:26:19.292Z,12.70
2023-01-20T22:28:48.407Z,12.70
2023-01-20T22:31:23.663Z,12.70
2023-01-20T22:33:53.715Z,12.60
2023-01-20T22:36:22.854Z,12.60
2023-01-20T22:38:53.086Z,12.50
2023-01-20T22:41:23.021Z,12.50
2023-01-20T22:43:52.737Z,12.50
2023-01-20T22:46:24.038Z,12.50
2023-01-20T22:49:12.713Z,12.50
2023-01-20T22:51:42.135Z,12.50
2023-01-20T22:54:29.733Z,12.40
2023-01-20T22:56:58.800Z,12.30
2023-01-20T22:59:27.815Z,12.20
2023-01-20T23:01:58.370Z,12.20
2023-01-20T23:04:27.805Z,12.10
2023-01-20T23:06:56.759Z,12.00
2023-01-20T23:09:25.833Z,12.00
2023-01-20T23:11:54.859Z,11.90
2023-01-20T23:14:52.380Z,11.80
2023-01-20T23:17:22.804Z,11.70
2023-01-20T23:19:51.943Z,11.70
2023-01-20T23:22:20.898Z,11.60
2023-01-20T23:24:49.945Z,11.60
2023-01-20T23:27:19.009Z,11.50
2023-01-20T23:29:49.258Z,11.50
2023-01-20T23:32:18.219Z,11.40
2023-01-20T23:34:48.585Z,11.40
2023-01-20T23:37:18.240Z,11.30
2023-01-20T23:39:47.253Z,11.30
2023-01-20T23:42:18.104Z,11.20
2023-01-20T23:44:47.782Z,11.20
2023-01-20T23:47:16.701Z,11.10
2023-01-20T23:49:45.952Z,11.10
2023-01-20T23:52:16.337Z,11.10
2023-01-20T23:54:45.350Z,11.10
2023-01-20T23:57:14.363Z,11.00
2023-01-20T23:59:43.379Z,11.00
